createdAt,value
2019-02-14T00:03:00.419Z,84.77
2019-02-14T00:07:05.827Z,85.29
2019-02-14T00:11:11.244Z,84.96
2019-02-14T00:15:16.706Z,84.69
2019-02-14T00:19:22.093Z,84.43
2019-02-14T00:23:27.534Z,84.41
2019-02-14T00:27:32.819Z,84.37
2019-02-14T00:31:38.160Z,84.47
2019-02-14T00:35:43.750Z,84.83
2019-02-14T00:39:49.095Z,84.50
2019-02-14T00:43:54.450Z,84.51
2019-02-14T00:47:59.786Z,84.71
2019-02-14T00:52:05.219Z,84.87
2019-02-14T00:56:10.575Z,84.82
2019-02-14T01:00:16.014Z,84.91
2019-02-14T01:04:21.521Z,84.92
2019-02-14T01:08:27.135Z,84.95
2019-02-14T01:12:32.659Z,84.59
2019-02-14T01:16:37.943Z,84.93
2019-02-14T01:20:43.404Z,85.05
2019-02-14T01:24:49.046Z,85.02
2019-02-14T01:28:54.504Z,85.02
2019-02-14T01:32:59.918Z,85.18
2019-02-14T01:37:05.670Z,85.05
2019-02-14T01:41:10.984Z,85.55
2019-02-14T01:45:16.533Z,85.33
2019-02-14T01:49:21.959Z,85.94
2019-02-14T01:53:27.382Z,86.00
2019-02-14T01:57:32.830Z,85.76
2019-02-14T02:01:38.170Z,86.13
2019-02-14T02:05:50.666Z,86.49
2019-02-14T02:09:50.606Z,85.96
2019-02-14T02:13:56.065Z,86.00
2019-02-14T02:18:01.664Z,86.31
2019-02-14T02:22:07.072Z,86.31
2019-02-14T02:26:12.501Z,86.20
2019-02-14T02:30:18.045Z,86.00
2019-02-14T02:34:23.465Z,86.46
2019-02-14T02:38:28.752Z,86.45
2019-02-14T02:42:34.222Z,86.19
2019-02-14T02:46:39.692Z,86.38
2019-02-14T02:50:45.325Z,86.37
2019-02-14T02:54:50.608Z,86.27
2019-02-14T02:58:55.942Z,86.20
2019-02-14T03:03:01.460Z,86.50
2019-02-14T03:07:07.083Z,86.27
2019-02-14T03:11:12.372Z,86.34
2019-02-14T03:15:17.819Z,86.86
2019-02-14T03:19:23.244Z,87.09
2019-02-14T03:23:29.008Z,86.84
2019-02-14T03:27:34.303Z,86.89
2019-02-14T03:31:39.769Z,86.79
2019-02-14T03:35:45.038Z,87.19
2019-02-14T03:39:50.495Z,87.15
2019-02-14T03:43:55.904Z,87.10
2019-02-14T03:48:01.359Z,87.61
2019-02-14T03:52:06.691Z,87.91
2019-02-14T03:56:12.094Z,87.88
2019-02-14T04:00:17.582Z,87.63
2019-02-14T04:04:22.960Z,87.74
2019-02-14T04:08:28.331Z,87.88
2019-02-14T04:12:33.798Z,87.77
2019-02-14T04:16:39.232Z,87.68
2019-02-14T04:20:44.648Z,87.83
2019-02-14T04:24:50.368Z,88.00
2019-02-14T04:28:55.638Z,87.82
2019-02-14T04:33:01.066Z,87.62
2019-02-14T04:37:06.546Z,88.05
2019-02-14T04:41:11.951Z,88.08
2019-02-14T04:45:17.367Z,87.92
2019-02-14T04:49:23.065Z,88.11
2019-02-14T04:53:28.880Z,88.20
2019-02-14T04:57:34.260Z,88.16
2019-02-14T05:01:39.810Z,88.20
2019-02-14T05:05:45.099Z,88.41
2019-02-14T05:09:50.705Z,88.45
2019-02-14T05:13:56.052Z,88.33
2019-02-14T05:18:01.550Z,88.06
2019-02-14T05:22:06.990Z,88.29
2019-02-14T05:26:12.422Z,88.45
2019-02-14T05:30:17.869Z,88.39
2019-02-14T05:34:23.362Z,88.34
2019-02-14T05:38:28.575Z,88.26
2019-02-14T05:42:33.902Z,88.05
2019-02-14T05:46:39.195Z,88.17
2019-02-14T05:50:44.657Z,88.27
2019-02-14T05:54:50.536Z,88.37
2019-02-14T05:58:56.233Z,88.20
2019-02-14T06:03:02.420Z,88.36
2019-02-14T06:07:07.824Z,88.27
2019-02-14T06:11:13.192Z,88.26
2019-02-14T06:15:18.718Z,88.22
2019-02-14T06:19:24.011Z,88.24
2019-02-14T06:23:30.175Z,88.32
2019-02-14T06:27:35.943Z,88.38
2019-02-14T06:31:41.475Z,88.34
2019-02-14T06:35:46.934Z,88.52
2019-02-14T06:39:52.225Z,88.57
2019-02-14T06:43:57.650Z,88.48
2019-02-14T06:48:03.444Z,88.60
2019-02-14T06:52:09.105Z,88.78
2019-02-14T06:56:14.590Z,88.74
2019-02-14T07:00:20.034Z,88.79
2019-02-14T07:04:25.701Z,88.35
2019-02-14T07:08:31.077Z,88.28
2019-02-14T07:12:36.432Z,88.36
2019-02-14T07:16:41.951Z,88.20
2019-02-14T07:20:48.210Z,87.97
2019-02-14T07:24:53.493Z,87.62
2019-02-14T07:28:58.957Z,87.35
2019-02-14T07:33:04.467Z,87.15
2019-02-14T07:37:09.914Z,86.55
2019-02-14T07:41:15.366Z,86.51
2019-02-14T07:45:20.736Z,85.06
2019-02-14T07:49:26.115Z,83.31
2019-02-14T07:53:31.879Z,83.50
2019-02-14T07:57:37.516Z,82.94
2019-02-14T08:01:43.478Z,82.54
2019-02-14T08:05:52.423Z,81.51
2019-02-14T08:09:58.205Z,81.05
2019-02-14T08:14:10.272Z,80.74
2019-02-14T08:18:15.734Z,80.59
2019-02-14T08:22:21.210Z,80.26
2019-02-14T08:26:26.552Z,78.30
2019-02-14T08:30:31.906Z,76.51
2019-02-14T08:34:37.371Z,75.76
2019-02-14T08:38:42.763Z,74.06
2019-02-14T08:42:48.199Z,74.05
2019-02-14T08:46:53.668Z,74.14
2019-02-14T08:50:59.542Z,74.89
2019-02-14T08:55:05.492Z,72.60
2019-02-14T08:59:10.854Z,74.22
2019-02-14T09:03:16.106Z,74.23
2019-02-14T09:07:21.539Z,72.66
2019-02-14T09:11:27.379Z,73.61
2019-02-14T09:15:33.496Z,71.18
2019-02-14T09:19:42.244Z,70.46
2019-02-14T09:23:47.540Z,69.22
2019-02-14T09:27:53.138Z,68.37
2019-02-14T09:31:58.506Z,65.52
2019-02-14T09:36:03.881Z,67.03
2019-02-14T09:40:11.014Z,68.82
2019-02-14T09:44:16.446Z,68.81
2019-02-14T09:48:21.794Z,68.14
2019-02-14T09:52:27.218Z,66.66
2019-02-14T09:56:32.431Z,67.01
2019-02-14T10:00:37.881Z,69.94
2019-02-14T10:04:43.289Z,68.40
2019-02-14T10:08:48.838Z,68.44
2019-02-14T10:12:54.041Z,66.13
2019-02-14T10:16:59.482Z,65.16
2019-02-14T10:21:05.377Z,64.71
2019-02-14T10:25:11.309Z,64.55
2019-02-14T10:29:16.574Z,64.26
2019-02-14T10:33:21.917Z,61.88
2019-02-14T10:37:27.352Z,59.87
2019-02-14T10:41:32.886Z,59.10
2019-02-14T10:45:38.651Z,61.14
2019-02-14T10:49:44.102Z,58.79
2019-02-14T10:53:49.535Z,54.89
2019-02-14T10:57:55.060Z,58.03
2019-02-14T11:02:00.553Z,55.81
2019-02-14T11:06:06.073Z,56.51
2019-02-14T11:10:11.831Z,55.75
2019-02-14T11:14:17.229Z,54.09
2019-02-14T11:18:23.069Z,53.94
2019-02-14T11:22:28.750Z,56.32
2019-02-14T11:26:34.182Z,55.40
2019-02-14T11:30:39.642Z,52.39
2019-02-14T11:34:45.482Z,52.26
2019-02-14T11:38:51.195Z,53.22
2019-02-14T11:42:56.640Z,53.53
2019-02-14T11:47:02.277Z,56.28
2019-02-14T11:51:07.646Z,54.48
2019-02-14T11:55:13.311Z,54.62
2019-02-14T11:59:18.653Z,52.32
2019-02-14T12:03:24.001Z,51.64
2019-02-14T12:07:29.531Z,52.91
2019-02-14T12:11:35.294Z,50.67
2019-02-14T12:15:40.774Z,52.43
2019-02-14T12:19:48.820Z,52.08
2019-02-14T12:23:53.868Z,49.25
2019-02-14T12:27:59.320Z,48.22
2019-02-14T12:32:04.587Z,47.81
2019-02-14T12:36:10.045Z,50.38
2019-02-14T12:40:15.689Z,49.74
2019-02-14T12:44:21.001Z,48.85
2019-02-14T12:48:26.537Z,46.60
2019-02-14T12:52:32.480Z,46.54
2019-02-14T12:56:37.910Z,48.97
2019-02-14T13:00:43.590Z,48.92
2019-02-14T13:04:48.812Z,44.31
2019-02-14T13:08:54.165Z,44.32
2019-02-14T13:13:00.225Z,45.90
2019-02-14T13:17:05.737Z,48.74
2019-02-14T13:21:11.718Z,42.03
2019-02-14T13:25:17.507Z,46.54
2019-02-14T13:29:22.949Z,42.17
2019-02-14T13:33:28.476Z,40.39
2019-02-14T13:37:33.962Z,44.63
2019-02-14T13:41:39.415Z,43.83
2019-02-14T13:45:45.030Z,44.31
2019-02-14T13:49:50.416Z,42.46
2019-02-14T13:53:55.854Z,41.29
2019-02-14T13:58:01.225Z,45.20
2019-02-14T14:02:06.502Z,40.74
2019-02-14T14:06:12.327Z,43.15
2019-02-14T14:10:17.813Z,42.36
2019-02-14T14:14:23.336Z,42.91
2019-02-14T14:18:28.833Z,40.88
2019-02-14T14:22:34.200Z,41.30
2019-02-14T14:26:39.622Z,42.63
2019-02-14T14:30:45.069Z,41.49
2019-02-14T14:34:50.426Z,38.46
2019-02-14T14:38:55.807Z,41.05
2019-02-14T14:43:32.313Z,40.36
2019-02-14T14:47:38.109Z,41.46
2019-02-14T14:51:43.555Z,40.93
2019-02-14T14:55:49.247Z,40.93
2019-02-14T14:59:54.649Z,39.27
2019-02-14T15:04:00.008Z,40.01
2019-02-14T15:08:05.437Z,38.39
2019-02-14T15:12:10.746Z,36.43
2019-02-14T15:16:16.373Z,37.27
2019-02-14T15:20:21.883Z,35.88
2019-02-14T15:24:27.324Z,38.30
2019-02-14T15:28:32.783Z,35.83
2019-02-14T15:32:38.156Z,36.79
2019-02-14T15:36:43.412Z,34.66
2019-02-14T15:40:49.140Z,35.70
2019-02-14T15:44:54.633Z,36.66
2019-02-14T15:49:00.082Z,33.06
2019-02-14T15:53:07.584Z,36.67
2019-02-14T15:57:12.803Z,42.08
2019-02-14T16:01:19.021Z,41.49
2019-02-14T16:05:24.776Z,38.85
2019-02-14T16:09:30.072Z,47.56
2019-02-14T16:13:35.452Z,47.51
2019-02-14T16:17:41.268Z,45.95
2019-02-14T16:21:47.386Z,49.51
2019-02-14T16:25:54.035Z,51.85
2019-02-14T16:29:59.388Z,52.89
2019-02-14T16:34:04.879Z,53.13
2019-02-14T16:38:11.839Z,55.41
2019-02-14T16:42:18.223Z,53.35
2019-02-14T16:46:23.629Z,56.20
2019-02-14T16:50:28.909Z,55.20
2019-02-14T16:54:35.787Z,57.11
2019-02-14T16:58:41.600Z,57.40
2019-02-14T17:02:47.019Z,58.03
2019-02-14T17:06:52.477Z,58.22
2019-02-14T17:10:57.899Z,58.30
2019-02-14T17:15:03.260Z,58.96
2019-02-14T17:19:08.797Z,58.70
2019-02-14T17:23:14.189Z,58.89
2019-02-14T17:27:19.666Z,60.09
2019-02-14T17:31:24.931Z,61.59
2019-02-14T17:35:30.364Z,62.07
2019-02-14T17:39:35.650Z,61.98
2019-02-14T17:43:41.121Z,61.51
2019-02-14T17:47:46.461Z,61.56
2019-02-14T17:51:51.893Z,62.24
2019-02-14T17:55:57.310Z,62.63
2019-02-14T18:00:03.316Z,62.47
2019-02-14T18:04:08.529Z,64.18
2019-02-14T18:08:13.959Z,63.27
2019-02-14T18:12:19.416Z,64.36
2019-02-14T18:16:24.765Z,64.32
2019-02-14T18:20:30.517Z,64.73
2019-02-14T18:24:36.283Z,64.56
2019-02-14T18:28:41.730Z,65.98
2019-02-14T18:32:47.147Z,65.98
2019-02-14T18:36:52.614Z,66.39
2019-02-14T18:41:03.861Z,65.98
2019-02-14T18:45:05.422Z,66.73
2019-02-14T18:49:11.128Z,67.35
2019-02-14T18:53:16.586Z,66.40
2019-02-14T18:57:22.719Z,67.28
2019-02-14T19:01:28.492Z,67.75
2019-02-14T19:05:34.024Z,68.13
2019-02-14T19:09:39.475Z,66.20
2019-02-14T19:13:44.796Z,68.63
2019-02-14T19:17:50.498Z,68.10
2019-02-14T19:21:56.416Z,68.16
2019-02-14T19:26:01.972Z,67.25
2019-02-14T19:30:07.967Z,67.89
2019-02-14T19:34:13.405Z,68.61
2019-02-14T19:38:18.835Z,68.90
2019-02-14T19:42:24.456Z,68.73
2019-02-14T19:46:30.235Z,68.76
2019-02-14T19:50:35.688Z,68.48
2019-02-14T19:54:41.092Z,68.76
2019-02-14T19:58:46.438Z,68.93
2019-02-14T20:02:51.951Z,69.80
2019-02-14T20:06:57.565Z,69.49
2019-02-14T20:11:03.024Z,69.93
2019-02-14T20:15:12.150Z,70.61
2019-02-14T20:19:17.421Z,70.62
2019-02-14T20:23:22.991Z,70.60
2019-02-14T20:27:28.447Z,70.14
2019-02-14T20:31:33.774Z,69.85
2019-02-14T20:35:39.188Z,69.22
2019-02-14T20:39:45.140Z,69.77
2019-02-14T20:43:51.063Z,68.92
2019-02-14T20:47:57.354Z,68.60
2019-02-14T20:52:03.385Z,67.18
2019-02-14T20:56:08.857Z,67.74
2019-02-14T21:00:46.744Z,66.30
2019-02-14T21:04:52.601Z,65.59
2019-02-14T21:08:58.307Z,65.32
2019-02-14T21:13:03.716Z,64.62
2019-02-14T21:17:09.543Z,63.91
2019-02-14T21:21:14.966Z,65.14
2019-02-14T21:25:23.035Z,62.35
2019-02-14T21:29:27.565Z,63.04
2019-02-14T21:33:33.064Z,63.63
2019-02-14T21:37:38.685Z,64.88
2019-02-14T21:41:44.063Z,62.65
2019-02-14T21:45:49.532Z,59.43
2019-02-14T21:49:54.956Z,61.93
2019-02-14T21:54:01.159Z,61.60
2019-02-14T21:58:06.617Z,59.77
2019-02-14T22:02:12.045Z,59.57
2019-02-14T22:06:17.672Z,58.33
2019-02-14T22:10:23.162Z,58.79
2019-02-14T22:14:28.601Z,59.75
2019-02-14T22:18:34.083Z,58.08
2019-02-14T22:22:39.472Z,57.76
2019-02-14T22:26:45.254Z,57.72
2019-02-14T22:30:50.598Z,57.81
2019-02-14T22:34:56.029Z,56.15
2019-02-14T22:39:01.287Z,56.61
2019-02-14T22:43:06.746Z,57.20
2019-02-14T22:47:12.157Z,57.53
2019-02-14T22:51:17.597Z,58.37
2019-02-14T22:55:23.030Z,57.91
2019-02-14T22:59:28.429Z,56.25
2019-02-14T23:03:33.864Z,56.98
2019-02-14T23:07:39.358Z,56.58
2019-02-14T23:11:44.785Z,57.46
2019-02-14T23:15:50.473Z,56.88
2019-02-14T23:19:55.738Z,56.12
2019-02-14T23:24:01.151Z,55.51
2019-02-14T23:28:06.559Z,55.16
2019-02-14T23:32:12.093Z,56.18
2019-02-14T23:36:17.521Z,56.22
2019-02-14T23:40:22.929Z,57.21
2019-02-14T23:44:28.720Z,57.40
2019-02-14T23:48:34.145Z,57.46
2019-02-14T23:52:39.563Z,56.95
2019-02-14T23:56:44.984Z,55.56
